Kittery Point, ME (03905)

9:45 PM EST on January 25, 2015 (GMT -0500)
KPV | Change Station
CLOSE
Current Station
Personal Weather Station
Location: Kittery Point, ME
Elevation: 40 ft
Nearby Weather Stations

Elev 40 ft 43.08 °N, 70.71 °W | Updated 39 seconds ago

Mostly Cloudy
Mostly Cloudy
18.4 °F
Feels Like 18 °F
N
0.2
Wind Variable Wind from North
Gusts 6.3 mph

Today
High -- | Low -- °F
--% Chance of Precip.
Yesterday
High -- | Low -- °F
Precip. -- in
7:04 AM 4:45 PM
Waxing Crescent, 38% visible
Pressure 29.97 in
Visibility 10.0 miles
Clouds Mostly Cloudy 20000 ft
Windchill 18 °F
Dew Point 3 °F
Humidity 51%
Rainfall -999.00 in
Snow Depth Not available.
UV 0 out of 12
Pollen .10 out of 12
Air Quality Not available.
Flu Activity Not available.
METAR KPSM 260158Z 30013G19KT 10SM BKN200 M08/M18 A2995 RMK AO2A SLP147 T10771180

More Conditions Fewer Conditions

Pressure 29.97 in
Visibility 10.0 miles
Clouds Mostly Cloudy 20000 ft
Windchill 18 °F
Dew Point 3 °F
Humidity 51%
Rainfall -999.00 in
Snow Depth Not available.
UV 0 out of 12
Pollen .10 out of 12
Air Quality Not available.
Flu Activity Not available.
METAR KPSM 260158Z 30013G19KT 10SM BKN200 M08/M18 A2995 RMK AO2A SLP147 T10771180

More Conditions Fewer Conditions

10-Day Weather Forecast

Almanac

Astronomy

Jan. 25, 2015 Rise Set
Actual Time
Civil Twilight
Nautical Twilight
Astronomical Twilight
Moon
Length of Visible Light
Length of Day
Tomorrow will be .
, % of the Moon is Illuminated

Today's Extremes

State Highs State Lows

Community

WunderPhotos

Upload Photos

1,790,085 photos uploaded!

WunderBlogs® & News

Nearby

Air Quality

  Air Quality AQ Index Pollutant
Not available.

Snow Depth

Station Depth Elevation

Earthquake Activity

City Distance Mag. Time & Date
Minimum magnitude displayed is 2.5.

Coastal Water Temperatures

Place Temperature

Nearby Weather Stations